CST,Max TemperatureF,Mean TemperatureF,Min TemperatureF,Max Dew PointF,MeanDew PointF,Min DewpointF,Max Humidity, Mean Humidity, Min Humidity, Max Sea Level PressureIn, Mean Sea Level PressureIn, Min Sea Level PressureIn, Max VisibilityMiles, Mean VisibilityMiles, Min VisibilityMiles, Max Wind SpeedMPH, Mean Wind SpeedMPH, Max Gust SpeedMPH,PrecipitationIn, CloudCover, Events, WindDirDegrees
2013-11-1,62,51,39,39,34,31,76,56,35,30.10,29.89,29.72,10,10,10,31,13,38,0.00,2,,294
2013-11-2,60,46,32,32,28,25,85,56,26,30.28,30.18,30.08,10,10,10,21,10,27,0.00,0,,261
2013-11-3,63,54,44,37,32,29,58,47,36,30.05,29.83,29.67,10,10,10,40,29,55,0.00,0,,170
2013-11-4,61,50,39,42,37,35,82,61,39,30.10,29.93,29.70,10,10,10,35,12,42,0.00,1,,67
2013-11-5,58,47,35,57,47,34,100,86,71,30.11,29.92,29.78,10,4,0,25,13,34,1.09,8,Fog-Rain,83
2013-11-6,42,37,32,33,32,30,96,83,70,30.33,30.26,30.10,10,10,7,22,9,28,0.00,5,,284
2013-11-7,54,46,37,33,31,29,76,57,38,30.45,30.36,30.25,10,10,10,8,4,,0.00,0,,132
2013-11-8,69,53,37,35,32,29,82,52,22,30.23,29.93,29.76,10,10,10,36,18,43,0.00,0,,191
2013-11-9,65,51,36,37,33,31,85,57,28,30.32,30.16,29.96,10,10,10,15,3,18,0.00,0,,27
2013-11-10,59,47,34,46,37,31,89,68,46,30.41,30.30,30.18,10,10,7,21,9,27,0.00,2,,154
2013-11-11,49,37,25,47,35,12,100,78,55,30.78,30.34,30.14,10,6,0,26,15,33,0.00,5,Fog,344
2013-11-12,35,24,13,14,9,4,92,60,27,30.95,30.81,30.65,10,10,10,20,8,24,0.00,0,,292
2013-11-13,57,40,23,31,21,11,62,47,32,30.62,30.30,30.04,10,10,10,29,17,36,0.00,0,,191
2013-11-14,56,45,34,30,24,18,70,51,32,30.00,29.95,29.92,10,10,10,26,8,32,0.00,0,,210
2013-11-15,59,42,24,45,35,26,92,68,43,29.91,29.76,29.55,10,10,7,26,11,33,0.00,0,,167
2013-11-16,66,56,45,48,37,28,83,54,24,29.52,29.39,29.27,10,10,9,30,13,38,0.00,0,,185
2013-11-17,60,48,35,38,30,18,76,48,19,30.14,29.73,29.25,10,10,10,40,17,50,0.00,0,,291
2013-11-18,58,44,29,28,24,20,92,58,23,30.30,30.22,30.12,10,10,10,17,10,23,0.00,0,,224
2013-11-19,63,51,38,32,26,21,54,41,27,30.18,29.98,29.83,10,10,10,35,18,43,0.00,1,,166
2013-11-20,65,55,45,47,37,27,86,63,40,29.88,29.80,29.73,10,10,6,22,13,27,0.00,0,,181
2013-11-21,50,36,21,45,23,16,93,81,69,30.63,30.27,29.92,10,8,2,30,20,40,0.06,7,,357
2013-11-22,30,23,16,16,11,9,77,60,42,30.77,30.69,30.59,10,10,9,25,10,31,0.00,1,,333
2013-11-23,29,22,15,16,12,6,77,62,46,30.88,30.80,30.68,10,10,10,18,9,23,0.00,0,,42
2013-11-24,31,22,13,18,10,8,80,61,42,30.76,30.52,30.26,10,10,10,22,12,30,0.00,4,,172
2013-11-25,42,33,24,27,22,18,81,68,55,30.28,30.22,30.15,10,10,9,16,9,24,0.00,5,,251
2013-11-26,37,27,16,22,14,6,81,55,29,30.50,30.40,30.27,10,10,10,26,12,35,0.00,1,,336
2013-11-27,38,24,10,18,12,6,83,60,37,30.50,30.31,30.12,10,10,10,20,9,26,0.00,0,,224
2013-11-28,38,29,20,23,20,17,84,69,54,30.50,30.37,30.14,10,8,6,20,8,24,0.00,1,,19
2013-11-29,55,37,19,30,24,16,91,65,38,30.48,30.30,30.13,10,8,5,26,12,33,0.00,0,,149
2013-11-30,59,42,25,32,28,24,100,67,33,30.16,30.12,30.07,10,9,6,18,5,25,0.00,0,,236